createdAt,value
2022-12-06T00:02:16.497Z,1009.1247429403172
2022-12-06T00:07:51.651Z,1009.0219438012471
2022-12-06T00:13:26.838Z,1009.0874736268916
2022-12-06T00:19:03.013Z,1008.9776160862632
2022-12-06T00:24:39.116Z,1008.9614745025339
2022-12-06T00:30:14.300Z,1008.8919174052643
2022-12-06T00:35:55.488Z,1008.9632182128865
2022-12-06T00:41:31.614Z,1008.9625033332771
2022-12-06T00:47:07.732Z,1008.8333979671938
2022-12-06T00:52:42.935Z,1008.7266833251726
2022-12-06T00:58:18.072Z,1008.6212027728207
2022-12-06T01:03:54.224Z,1008.6923059264763
2022-12-06T01:09:30.432Z,1008.5762713556583
2022-12-06T01:15:05.563Z,1008.5239934926755
2022-12-06T01:20:41.716Z,1008.5479867027782
2022-12-06T01:26:25.861Z,1008.3552043356375
2022-12-06T01:32:02.039Z,1008.3455365281802
2022-12-06T01:37:37.204Z,1008.2841459415048
2022-12-06T01:43:45.254Z,1008.1830029751692
2022-12-06T01:49:24.426Z,1008.2214990198887
2022-12-06T01:54:59.617Z,1008.1949867984523
2022-12-06T02:00:35.727Z,1008.118915120979
2022-12-06T02:06:10.922Z,1008.0986993469828
2022-12-06T02:11:46.077Z,1008.0600250296251
2022-12-06T02:17:33.239Z,1008.07223222109
2022-12-06T02:25:43.543Z,1007.9770946236704
2022-12-06T02:31:23.158Z,1007.9067057448269
2022-12-06T02:37:04.284Z,1007.8031383558748
2022-12-06T02:42:46.391Z,1007.603391876347
2022-12-06T02:48:24.577Z,1007.5883991003363
2022-12-06T02:54:02.708Z,1007.519257537849
2022-12-06T02:59:37.877Z,1007.488259454604
2022-12-06T03:05:22.042Z,1007.5337524116374
2022-12-06T03:11:04.168Z,1007.466758696662
2022-12-06T03:16:48.311Z,1007.4602151444866
2022-12-06T03:22:28.457Z,1007.4090146625607
2022-12-06T03:28:05.604Z,1007.3464419307387
2022-12-06T03:33:43.761Z,1007.4103935198277
2022-12-06T03:45:12.248Z,1007.1941180947309
2022-12-06T03:50:56.915Z,1007.0896296885413
2022-12-06T03:56:33.400Z,1007.08999788013
2022-12-06T04:02:08.595Z,1006.9944506293889
2022-12-06T04:07:43.697Z,1007.0851608615433
2022-12-06T04:13:19.849Z,1007.0284863345203
2022-12-06T04:18:56.036Z,1007.1208409354757
2022-12-06T04:24:31.162Z,1007.1898675304839
2022-12-06T04:30:07.304Z,1007.2219399773614
2022-12-06T04:35:42.478Z,1007.142879752774
2022-12-06T04:41:18.621Z,1007.1840050274071
2022-12-06T04:46:53.801Z,1007.2285691986897
2022-12-06T04:52:34.105Z,1007.2714398550239
2022-12-06T04:58:10.154Z,1007.2091151847915
2022-12-06T05:03:45.298Z,1007.0166497866946
2022-12-06T05:09:20.420Z,1006.8500597212214
2022-12-06T05:14:55.640Z,1006.8973950016814
2022-12-06T05:20:30.746Z,1006.8477110844833
2022-12-06T05:26:06.895Z,1006.7432246212645
2022-12-06T05:31:42.097Z,1006.5971798751046
2022-12-06T05:37:17.232Z,1006.7332378049781
2022-12-06T05:42:52.376Z,1006.9856325586757
2022-12-06T05:48:27.572Z,1006.7866607626696
2022-12-06T05:54:02.709Z,1006.9044095534894
2022-12-06T05:59:37.880Z,1006.7778358851422
2022-12-06T06:05:14.054Z,1006.8027680183502
2022-12-06T06:10:49.207Z,1006.7812342130965
2022-12-06T06:16:24.451Z,1006.6906575642438
2022-12-06T06:21:59.575Z,1006.6975292950635
2022-12-06T06:27:35.698Z,1006.7415194485757
2022-12-06T06:33:10.866Z,1006.8069602390226
2022-12-06T06:38:45.985Z,1006.93024960851
2022-12-06T06:44:21.168Z,1007.0551463092587
2022-12-06T06:49:56.314Z,1007.1619203495408
2022-12-06T06:55:31.488Z,1007.4690105604329
2022-12-06T07:01:07.730Z,1007.3779874582214
2022-12-06T07:06:43.843Z,1007.3379210693146
2022-12-06T07:12:18.955Z,1006.9443761622387
2022-12-06T07:17:54.172Z,1007.0943219300175
2022-12-06T07:23:48.256Z,1007.1798524037702
2022-12-06T07:29:23.413Z,1007.2187090396034
2022-12-06T07:34:58.622Z,1007.2492820534266
2022-12-06T07:41:03.032Z,1007.2389948066142
2022-12-06T07:46:42.852Z,1007.4859200401526
2022-12-06T07:52:17.987Z,1007.9114037402541
2022-12-06T07:57:53.139Z,1008.0323781894481
2022-12-06T08:03:28.299Z,1008.0637150462306
2022-12-06T08:09:03.478Z,1007.5508528688595
2022-12-06T08:14:38.615Z,1007.635522429048
2022-12-06T08:20:13.763Z,1007.5753427558938
2022-12-06T08:25:56.946Z,1007.6213241453532
2022-12-06T08:31:32.205Z,1007.6719371464285
2022-12-06T08:37:07.264Z,1007.7982583835422
2022-12-06T08:42:42.438Z,1007.7422332349321
2022-12-06T08:48:17.616Z,1007.6077550075116
2022-12-06T08:53:52.790Z,1007.7671776356531
2022-12-06T08:59:28.952Z,1007.5968705075048
2022-12-06T09:05:04.200Z,1007.7173045877181
2022-12-06T09:10:40.246Z,1007.7661097824523
2022-12-06T09:16:17.472Z,1007.7054763856971
2022-12-06T09:21:52.541Z,1007.4415223051719
2022-12-06T09:27:30.733Z,1007.4269169134423
2022-12-06T09:33:05.863Z,1007.2705877083015
2022-12-06T09:38:42.049Z,1006.9794716530912
2022-12-06T09:44:32.165Z,1006.8300191196214
2022-12-06T09:50:16.262Z,1006.9010493676114
2022-12-06T09:56:02.453Z,1006.703378062805
2022-12-06T10:01:50.628Z,1006.4219857642479
2022-12-06T10:07:35.771Z,1006.555681506767
2022-12-06T10:13:20.833Z,1006.5718866429328
2022-12-06T10:19:09.956Z,1006.6305217612799
2022-12-06T10:24:58.128Z,1006.8442118262177
2022-12-06T10:30:37.252Z,1006.9631571082052
2022-12-06T10:36:16.442Z,1007.1256281729324
2022-12-06T10:41:56.559Z,1007.301881605859
2022-12-06T10:47:38.715Z,1007.0720453518338
2022-12-06T10:53:17.847Z,1007.1003568457021
2022-12-06T10:59:05.000Z,1007.0772828164363
2022-12-06T11:04:45.134Z,1007.0137064438322
2022-12-06T11:10:25.295Z,1007.1666575849631
2022-12-06T11:16:06.462Z,1007.0383002113617
2022-12-06T11:21:54.527Z,1007.1136363712866
2022-12-06T11:27:34.787Z,1007.0393086144265
2022-12-06T11:33:10.841Z,1006.8990054372803
2022-12-06T11:38:47.041Z,1006.9122477086547
2022-12-06T11:44:26.201Z,1006.9206388615007
2022-12-06T11:50:08.015Z,1006.8641582482413
2022-12-06T11:55:51.473Z,1006.8838409745742
2022-12-06T12:01:46.835Z,1006.7286263947158
2022-12-06T12:07:23.755Z,1006.845953900069
2022-12-06T12:13:07.880Z,1006.7555894553961
2022-12-06T12:18:54.011Z,1006.6403604810636
2022-12-06T12:25:18.489Z,1006.7087247971302
2022-12-06T12:30:57.229Z,1006.7532052164004
2022-12-06T12:42:28.505Z,1006.8908382954411
2022-12-06T12:48:04.648Z,1006.9980284036999
2022-12-06T12:54:02.748Z,1007.0039641132092
2022-12-06T12:59:44.889Z,1007.0286659097137
2022-12-06T13:05:33.949Z,1007.0029763303315
2022-12-06T13:11:11.209Z,1006.9451999818297
2022-12-06T13:16:50.385Z,1006.9083047708591
2022-12-06T13:22:27.513Z,1006.818703119758
2022-12-06T13:28:07.672Z,1006.7573857868323
2022-12-06T13:33:51.758Z,1006.8398964321244
2022-12-06T13:39:34.903Z,1006.8239687293926
2022-12-06T13:45:45.057Z,1006.958690621474
2022-12-06T13:51:55.099Z,1007.0515492783015
2022-12-06T13:57:31.245Z,1006.9578081034352
2022-12-06T14:03:39.295Z,1006.9638315727035
2022-12-06T14:09:15.487Z,1007.0219858127359
2022-12-06T14:14:56.604Z,1007.1277421684106
2022-12-06T14:20:32.780Z,1007.1112113230868
2022-12-06T14:26:11.932Z,1007.2093792960716
2022-12-06T14:31:52.070Z,1007.1852138009541
2022-12-06T14:37:28.226Z,1007.3011374364562
2022-12-06T14:43:04.388Z,1007.2793131952317
2022-12-06T14:48:43.555Z,1007.28377396228
2022-12-06T14:54:19.719Z,1007.2940340841207
2022-12-06T15:00:26.457Z,1007.2569513447494
2022-12-06T15:06:13.905Z,1007.2287879056404
2022-12-06T15:12:20.001Z,1007.2679559447813
2022-12-06T15:17:55.186Z,1007.2791063435966
2022-12-06T15:23:33.325Z,1007.2539639641368
2022-12-06T15:29:08.477Z,1007.3661072439292
2022-12-06T15:34:51.587Z,1007.2775754884175
2022-12-06T15:40:26.754Z,1007.429082193207
2022-12-06T15:46:02.998Z,1007.3026625879013
2022-12-06T15:51:38.111Z,1007.2836787609908
2022-12-06T15:57:13.295Z,1007.3283564870351
2022-12-06T16:02:49.553Z,1007.3896161362885
2022-12-06T16:08:24.782Z,1007.4457446143737
2022-12-06T16:13:59.756Z,1007.4511910324125
2022-12-06T16:19:34.890Z,1007.4032597573406
2022-12-06T16:25:10.054Z,1007.3712990602303
2022-12-06T16:30:45.258Z,1007.468330160106
2022-12-06T16:36:21.418Z,1007.4669861466143
2022-12-06T16:41:57.619Z,1007.5334029211642
2022-12-06T16:47:32.743Z,1007.5290995222047
2022-12-06T16:53:07.890Z,1007.6874997460407
2022-12-06T16:58:43.060Z,1007.7900747153915
2022-12-06T17:04:18.227Z,1007.77414636026
2022-12-06T17:09:53.401Z,1007.7671485500592
2022-12-06T17:15:28.529Z,1007.8940366263964
2022-12-06T17:21:06.693Z,1007.8487804755662
2022-12-06T17:26:41.827Z,1007.865878715575
2022-12-06T17:32:17.050Z,1007.8713899936341
2022-12-06T17:37:52.180Z,1007.8371703891507
2022-12-06T17:43:27.342Z,1007.9037108871917
2022-12-06T17:49:03.513Z,1007.8587111616928
2022-12-06T17:54:38.679Z,1007.9206741835665
2022-12-06T18:00:14.789Z,1007.8741531081688
2022-12-06T18:05:49.958Z,1007.8656689223245
2022-12-06T18:11:29.146Z,1007.8528155951374
2022-12-06T18:17:05.411Z,1007.8017209554497
2022-12-06T18:22:40.498Z,1007.8211390937223
2022-12-06T18:28:15.612Z,1007.8003209685544
2022-12-06T18:33:50.747Z,1007.8844451817283
2022-12-06T18:39:29.924Z,1007.8600284755875
2022-12-06T18:45:05.409Z,1007.7832366091108
2022-12-06T18:50:40.295Z,1007.8116575493679
2022-12-06T18:56:16.474Z,1007.7660988710043
2022-12-06T19:01:52.643Z,1007.8271038280071
2022-12-06T19:07:27.741Z,1007.853840432188
2022-12-06T19:13:05.806Z,1007.7877393383511
2022-12-06T19:18:41.020Z,1007.7612751221686
2022-12-06T19:24:18.216Z,1007.7803083012592
2022-12-06T19:29:53.372Z,1007.7100352344
2022-12-06T19:35:28.534Z,1007.7506199156891
2022-12-06T19:41:06.683Z,1007.7428478631405
2022-12-06T19:46:43.855Z,1007.7297940208286
2022-12-06T19:52:20.024Z,1007.6281154810748
2022-12-06T19:57:55.182Z,1007.606845972698
2022-12-06T20:03:30.315Z,1007.5444484538285
2022-12-06T20:09:05.514Z,1007.5107282520381
2022-12-06T20:14:43.694Z,1007.5826951265914
2022-12-06T20:20:18.813Z,1007.5376314133241
2022-12-06T20:25:56.959Z,1007.5826840683521
2022-12-06T20:31:32.196Z,1007.6649218111903
2022-12-06T20:37:07.298Z,1007.7283970459581
2022-12-06T20:42:42.461Z,1007.6701415176092
2022-12-06T20:48:20.604Z,1007.6935435002498
2022-12-06T20:53:56.772Z,1007.6452221862774
2022-12-06T20:59:32.914Z,1007.7316539179315
2022-12-06T21:05:08.099Z,1007.7604591192362
2022-12-06T21:11:13.949Z,1007.7697296991345
2022-12-06T21:16:57.308Z,1007.8221781704796
2022-12-06T21:22:32.475Z,1007.8585023244433
2022-12-06T21:28:07.649Z,1007.8833594040622
2022-12-06T21:33:42.814Z,1007.8193593019819
2022-12-06T21:39:17.947Z,1007.8291595663786
2022-12-06T21:44:53.114Z,1007.8458720953494
2022-12-06T21:50:28.266Z,1007.8348676015381
2022-12-06T21:56:06.475Z,1007.8253443922536
2022-12-06T22:01:42.720Z,1007.7265081942626
2022-12-06T22:13:02.904Z,1007.7687289284945
2022-12-06T22:18:44.767Z,1007.7142033169221
2022-12-06T22:24:21.196Z,1007.8203028775756
2022-12-06T22:29:56.383Z,1007.7518010749844
2022-12-06T22:35:31.505Z,1007.7357607712391
2022-12-06T22:41:07.727Z,1007.7276510009559
2022-12-06T22:46:43.993Z,1007.6371820428956
2022-12-06T22:52:19.027Z,1007.7337833363962
2022-12-06T22:57:54.148Z,1007.7256113629383
2022-12-06T23:03:30.465Z,1007.701556386806
2022-12-06T23:09:05.542Z,1007.6249478669786
2022-12-06T23:14:40.663Z,1007.6689172514066
2022-12-06T23:20:15.848Z,1007.6269235588728
2022-12-06T23:25:50.961Z,1007.5714789013409
2022-12-06T23:31:27.264Z,1007.5746888044607
2022-12-06T23:37:03.325Z,1007.5297509844415
2022-12-06T23:42:38.464Z,1007.5047189652919
2022-12-06T23:48:13.635Z,1007.4049063080463
2022-12-06T23:53:50.828Z,1007.4195262612656
2022-12-06T23:59:25.945Z,1007.4128870150266
